Sant Julià de Vilatorta





Hora UTC 21:15
Temperatura 6.5 ºC
Humitat 94.0 %
Pressió 1020.2 hPa
Pluja 0.1 mm
Velocitat vent 2.1 km/h
Direcció vent NNE
Radiació solar 0.4 W/m²

Dades diàries 2020-01-29



Hora UTC (hivern +1h; estiu +2h)
Temperatura (ºC) Humitat (%) Pressió (hPa) Velocitat vent (km/h) Precipitació (mm) Radiació solar (W/m²)
Hora UTC Aire Humitat Pressió Vel. Dir. Vel. Max Dir. Intent. màx 5 min. Rad. Sol.
00:05 1.9 97.9 1018.1 2.2 N 2.2 SE 0.0 0.0
00:10 1.8 97.9 1017.9 2.2 NNE 4.5 ESE 0.0 0.0
00:15 1.8 97.9 1017.9 2.2 NNE 4.5 ESE 0.0 0.0
00:20 1.7 98.0 1017.8 2.3 NNE 3.9 ENE 0.0 0.0
00:25 1.7 98.0 1017.8 2.3 NNE 3.9 ENE 0.0 0.0
00:30 1.7 98.2 1017.7 4.2 NNE 7.1 E 0.0 0.0
00:35 1.7 98.2 1017.7 4.2 NNE 7.1 E 0.0 0.0
00:40 1.6 98.3 1017.8 4.1 NNE 6.9 SE 0.0 0.0
00:45 1.6 98.3 1017.8 4.1 NNE 6.9 SE 0.0 0.0
00:50 1.4 98.4 1017.8 1.9 ENE 3.9 SSE 0.0 0.0
00:55 1.4 98.4 1017.8 1.9 ENE 3.9 SSE 0.0 0.0
01:00 1.3 98.5 1017.9 1.9 NE 4.8 NE 0.0 0.0
01:05 1.3 98.5 1017.9 1.9 NE 4.8 NE 0.0 0.0
01:10 1.2 98.6 1018.0 2.5 ENE 5.8 NE 0.0 0.0
01:15 1.2 98.6 1018.0 2.5 ENE 5.8 NE 0.0 0.0
01:20 1.2 98.7 1017.9 3.1 NE 5.5 SE 0.0 0.0
01:25 1.2 98.7 1017.9 3.1 NE 5.5 SE 0.0 0.0
01:30 1.2 98.8 1017.9 2.5 NNE 5.9 ESE 0.0 0.0
01:35 1.2 98.8 1017.9 2.5 NNE 5.9 ESE 0.0 0.0
01:40 1.3 98.9 1017.8 3.3 NNE 6.9 E 0.0 0.0
01:45 1.3 98.9 1017.8 3.3 NNE 6.9 E 0.0 0.0
01:50 1.3 98.9 1017.8 2.5 NNE 6.3 ESE 0.0 0.0
01:55 1.3 98.9 1017.8 2.5 NNE 6.3 ESE 0.0 0.0
02:00 1.4 99.0 1017.9 2.9 NNE 5.3 E 0.0 0.0
02:05 1.4 99.0 1017.9 2.9 NNE 5.3 E 0.0 0.0
02:10 1.5 99.1 1017.8 3.9 NNE 6.0 E 0.0 0.0
02:15 1.5 99.1 1017.8 3.9 NNE 6.0 E 0.0 0.0
02:20 1.5 99.1 1017.9 3.9 NNE 6.7 E 0.0 0.0
02:25 1.5 99.1 1017.9 3.9 NNE 6.7 E 0.0 0.0
02:30 1.6 99.2 1017.8 2.9 NNE 5.0 E 0.0 0.0
02:35 1.6 99.2 1017.8 2.9 NNE 5.0 E 0.0 0.0
02:40 1.6 99.2 1017.7 2.5 NNE 4.2 ESE 0.0 0.0
02:45 1.6 99.2 1017.7 2.5 NNE 4.2 ESE 0.0 0.0
02:50 1.5 99.2 1017.6 2.1 ENE 4.9 NE 0.0 0.0
02:55 1.5 99.2 1017.6 2.1 ENE 4.9 NE 0.0 0.0
03:00 1.2 99.3 1017.6 1.7 ENE 3.9 NNW 0.0 0.0
03:05 1.2 99.3 1017.6 1.7 ENE 3.9 NNW 0.0 0.0
03:10 1.1 99.4 1017.6 3.6 N 8.0 SE 0.0 0.0
03:15 1.1 99.4 1017.6 3.6 N 8.0 SE 0.0 0.0
03:20 1.1 99.4 1017.7 1.6 NE 4.4 ESE 0.0 0.0
03:25 1.1 99.4 1017.7 1.6 NE 4.4 ESE 0.0 0.0
03:30 0.9 99.4 1017.7 2.9 E 6.2 NNW 0.0 0.0
03:35 0.9 99.4 1017.7 2.9 E 6.2 NNW 0.0 0.0
03:40 0.7 99.5 1017.5 2.9 ENE 5.2 NNW 0.0 0.0
03:45 0.7 99.5 1017.5 2.9 ENE 5.2 NNW 0.0 0.0
03:50 0.7 99.5 1017.6 2.7 NE 6.2 N 0.0 0.0
03:55 0.7 99.5 1017.6 2.7 NE 6.2 N 0.0 0.0
04:00 0.6 99.6 1017.7 2.7 NNE 4.0 ESE 0.0 0.0
04:05 0.6 99.6 1017.7 2.7 NNE 4.0 ESE 0.0 0.0
04:10 0.7 99.6 1017.7 3.5 NNE 6.2 SE 0.0 0.0
04:15 0.7 99.6 1017.7 3.5 NNE 6.2 SE 0.0 0.0
04:20 0.6 99.6 1017.8 2.1 NNE 3.9 SE 0.0 0.0
04:25 0.6 99.6 1017.8 2.1 NNE 3.9 SE 0.0 0.0
04:30 0.5 99.6 1017.9 1.7 NNE 2.7 NE 0.0 0.0
04:35 0.5 99.6 1017.9 1.7 NNE 2.7 NE 0.0 0.0
04:40 0.4 99.7 1017.9 1.2 ENE 2.3 NNW 0.0 0.3
04:45 0.4 99.7 1017.9 1.2 ENE 2.3 NNW 0.0 0.3
04:50 0.3 99.7 1018.0 1.2 NE 3.0 SSE 0.0 0.3
04:55 0.3 99.7 1018.0 1.2 NE 3.0 SSE 0.0 0.3
05:00 0.2 99.8 1017.9 2.8 NNE 3.7 SSE 0.0 0.0
05:05 0.2 99.8 1017.9 2.8 NNE 3.7 SSE 0.0 0.0
05:10 0.1 99.8 1018.0 1.5 ENE 3.0 NNE 0.0 0.1
05:15 0.1 99.8 1018.0 1.5 ENE 3.0 NNE 0.0 0.1
05:20 0.0 99.8 1018.2 1.3 NE 2.8 SSW 0.0 0.9
05:25 0.0 99.8 1018.2 1.3 NE 2.8 SSW 0.0 0.9
05:30 0.3 99.9 1018.2 2.3 NNE 4.5 SE 0.0 0.7
05:35 0.3 99.9 1018.2 2.3 NNE 4.5 SE 0.0 0.7
05:40 0.6 99.9 1018.2 2.5 NNE 6.2 SSE 0.0 0.3
05:45 0.6 99.9 1018.2 2.5 NNE 6.2 SSE 0.0 0.3
05:50 0.9 99.8 1018.4 1.8 NNE 3.2 ENE 0.0 0.2
05:55 0.9 99.8 1018.4 1.8 NNE 3.2 ENE 0.0 0.2
06:00 1.0 99.8 1018.5 2.2 NE 3.9 NE 0.0 0.1
06:05 1.0 99.8 1018.5 2.2 NE 3.9 NE 0.0 0.1
06:10 1.1 99.8 1018.5 1.7 NE 3.1 SE 0.0 0.2
06:15 1.1 99.8 1018.5 1.7 NE 3.1 SE 0.0 0.2
06:20 1.4 99.8 1018.5 2.3 NE 4.6 SE 0.0 0.1
06:25 1.4 99.8 1018.5 2.3 NE 4.6 SE 0.0 0.1
06:30 1.4 99.8 1018.7 1.0 NE 4.0 NNE 0.0 0.1
06:35 1.4 99.8 1018.7 1.0 NE 4.0 NNE 0.0 0.1
06:40 1.5 99.8 1018.9 2.8 ENE 4.9 NNE 0.0 0.3
06:45 1.5 99.8 1018.9 2.8 ENE 4.9 NNE 0.0 0.3
06:50 1.5 99.8 1018.9 2.3 NE 4.3 SSW 0.0 0.0
06:55 1.5 99.8 1018.9 2.3 NE 4.3 SSW 0.0 0.0
07:00 1.5 99.8 1019.1 1.7 NNE 3.0 SSE 0.0 0.8
07:05 1.5 99.8 1019.1 1.7 NNE 3.0 SSE 0.0 0.8
07:10 1.6 99.8 1019.1 1.9 NE 4.5 SSW 0.0 2.1
07:15 1.6 99.8 1019.1 1.9 NE 4.5 SSW 0.0 2.1
07:20 1.7 99.8 1019.2 1.6 ENE 4.4 SW 0.1 4.9
07:25 1.7 99.8 1019.2 1.6 ENE 4.4 SW 0.1 4.9
07:30 1.9 99.8 1019.3 2.0 NNE 3.5 SE 0.0 13.0
07:35 1.9 99.8 1019.3 2.0 NNE 3.5 SE 0.0 13.0
07:40 2.2 99.8 1019.6 2.9 NE 5.2 NNW 0.0 18.8
07:45 2.2 99.8 1019.6 2.9 NE 5.2 NNW 0.0 18.8
07:50 2.3 99.7 1019.7 2.0 NE 3.5 NNE 0.0 20.4
07:55 2.3 99.7 1019.7 2.0 NE 3.5 NNE 0.0 20.4
08:00 2.4 99.7 1019.7 1.1 NE 2.3 ESE 0.0 23.7
08:05 2.4 99.7 1019.7 1.1 NE 2.3 ESE 0.0 23.7
08:10 2.5 99.7 1019.9 0.8 NE 1.7 WSW 0.0 31.7
08:15 2.5 99.7 1019.9 0.8 NE 1.7 WSW 0.0 31.7
08:20 2.8 99.6 1019.9 1.5 ENE 3.2 N 0.0 47.3
08:25 2.8 99.6 1019.9 1.5 ENE 3.2 N 0.0 47.3
08:30 3.0 99.6 1019.8 2.9 NNE 8.2 NNW 0.0 70.3
08:35 3.0 99.6 1019.8 2.9 NNE 8.2 NNW 0.0 70.3
08:40 3.2 99.5 1019.9 4.5 NNE 7.5 N 0.0 55.3
08:45 3.2 99.5 1019.9 4.5 NNE 7.5 N 0.0 55.3
08:50 3.2 99.5 1020.0 4.2 N 6.2 NNW 0.0 43.1
08:55 3.2 99.5 1020.0 4.2 N 6.2 NNW 0.0 43.1
09:00 3.2 99.5 1020.2 3.7 NNE 5.7 NNW 0.0 96.0
09:05 3.2 99.5 1020.2 3.7 NNE 5.7 NNW 0.0 96.0
09:10 3.4 99.5 1020.2 2.8 NNE 4.8 N 0.0 108.6
09:15 3.4 99.5 1020.2 2.8 NNE 4.8 N 0.0 108.6
09:20 3.5 99.5 1020.3 2.5 NNE 4.7 N 0.0 153.1
09:25 3.5 99.5 1020.3 2.5 NNE 4.7 N 0.0 153.1
09:30 3.7 99.4 1020.3 3.0 NNE 5.5 NW 0.0 122.2
09:35 3.7 99.4 1020.3 3.0 NNE 5.5 NW 0.0 122.2
09:40 3.7 99.4 1020.4 2.7 NNE 5.1 NNW 0.0 89.9
09:45 3.7 99.4 1020.4 2.7 NNE 5.1 NNW 0.0 89.9
09:50 3.8 99.4 1020.5 2.2 NNE 4.5 NW 0.0 96.7
09:55 3.8 99.4 1020.5 2.2 NNE 4.5 NW 0.0 96.7
10:00 3.9 99.3 1020.6 2.0 NNE 4.0 NW 0.0 111.2
10:05 3.9 99.3 1020.6 2.0 NNE 4.0 NW 0.0 111.2
10:10 4.1 99.3 1020.6 1.6 NNE 3.7 NNW 0.0 190.7
10:15 4.1 99.3 1020.6 1.6 NNE 3.7 NNW 0.0 190.7
10:20 4.4 99.2 1020.6 2.2 ENE 4.8 S 0.0 217.2
10:25 4.4 99.2 1020.6 2.2 ENE 4.8 S 0.0 217.2
10:30 4.5 99.1 1020.7 2.9 ENE 7.3 WNW 0.0 161.0
10:35 4.5 99.1 1020.7 2.9 ENE 7.3 WNW 0.0 161.0
10:40 4.6 99.0 1020.7 2.0 NE 4.4 NW 0.0 242.9
10:45 4.6 99.0 1020.7 2.0 NE 4.4 NW 0.0 242.9
10:50 4.9 98.9 1020.7 2.9 NNE 6.9 WSW 0.0 251.1
10:55 4.9 98.9 1020.7 2.9 NNE 6.9 WSW 0.0 251.1
11:00 4.9 98.8 1020.7 4.9 NNE 7.8 0.0 192.4
11:05 4.9 98.8 1020.7 4.9 NNE 7.8 0.0 192.4
11:10 4.7 98.7 1020.6 3.1 ENE 6.5 N 0.0 178.7
11:15 4.7 98.7 1020.6 3.1 ENE 6.5 N 0.0 178.7
11:20 4.9 98.5 1020.5 2.7 ENE 4.9 N 0.0 208.2
11:25 4.9 98.5 1020.5 2.7 ENE 4.9 N 0.0 208.2
11:30 5.1 98.3 1020.4 3.5 NE 7.6 NNW 0.0 267.1
11:35 5.1 98.3 1020.4 3.5 NE 7.6 NNW 0.0 267.1
11:40 5.0 97.9 1020.3 3.0 ENE 6.3 N 0.0 151.5
11:45 5.0 97.9 1020.3 3.0 ENE 6.3 N 0.0 151.5
11:50 5.0 97.6 1020.2 2.2 ENE 5.7 N 0.0 222.8
11:55 5.0 97.6 1020.2 2.2 ENE 5.7 N 0.0 222.8
12:00 5.5 97.3 1020.0 3.3 NNE 6.7 NNW 0.0 391.5
12:05 5.5 97.3 1020.0 3.3 NNE 6.7 NNW 0.0 391.5
12:10 5.8 96.4 1019.8 4.3 NNE 7.8 NNE 0.0 399.5
12:15 5.8 96.4 1019.8 4.3 NNE 7.8 NNE 0.0 399.5
12:20 5.9 94.6 1019.7 4.5 NNE 8.7 WNW 0.0 286.2
12:25 5.9 94.6 1019.7 4.5 NNE 8.7 WNW 0.0 286.2
12:30 6.3 93.2 1019.6 5.1 NNE 10.7 NNW 0.0 472.7
12:35 6.3 93.2 1019.6 5.1 NNE 10.7 NNW 0.0 472.7
12:40 6.6 90.6 1019.5 5.7 NNE 9.2 N 0.0 449.3
12:45 6.6 90.6 1019.5 5.7 NNE 9.2 N 0.0 449.3
12:50 6.9 89.5 1019.4 5.7 NNE 8.9 NW 0.0 423.1
12:55 6.9 89.5 1019.4 5.7 NNE 8.9 NW 0.0 423.1
13:00 6.9 88.9 1019.3 4.8 NNE 8.9 NNW 0.0 402.1
13:05 6.9 88.9 1019.3 4.8 NNE 8.9 NNW 0.0 402.1
13:10 7.2 88.3 1019.3 3.1 NE 6.4 NNW 0.0 366.7
13:15 7.2 88.3 1019.3 3.1 NE 6.4 NNW 0.0 366.7
13:20 7.8 87.0 1019.1 2.9 NNE 6.0 NNW 0.0 463.1
13:25 7.8 87.0 1019.1 2.9 NNE 6.0 NNW 0.0 463.1
13:30 8.4 84.5 1018.9 3.4 NNE 6.3 WNW 0.0 450.2
13:35 8.4 84.5 1018.9 3.4 NNE 6.3 WNW 0.0 450.2
13:40 8.9 80.1 1018.8 3.2 NNE 6.4 NNW 0.0 423.7
13:45 8.9 80.1 1018.8 3.2 NNE 6.4 NNW 0.0 423.7
13:50 9.4 77.4 1018.7 3.4 NNE 7.3 NNW 0.0 410.6
13:55 9.4 77.4 1018.7 3.4 NNE 7.3 NNW 0.0 410.6
14:00 9.5 77.1 1018.6 3.6 NNE 6.3 N 0.0 400.9
14:05 9.5 77.1 1018.6 3.6 NNE 6.3 N 0.0 400.9
14:10 9.9 76.6 1018.5 3.3 NNE 7.3 WNW 0.0 400.2
14:15 9.9 76.6 1018.5 3.3 NNE 7.3 WNW 0.0 400.2
14:20 10.1 76.0 1018.4 4.3 NNE 7.8 NW 0.0 380.3
14:25 10.1 76.0 1018.4 4.3 NNE 7.8 NW 0.0 380.3
14:30 10.1 75.3 1018.4 3.9 NNE 7.3 NW 0.0 334.1
14:35 10.1 75.3 1018.4 3.9 NNE 7.3 NW 0.0 334.1
14:40 10.2 75.0 1018.4 3.4 NNE 6.8 N 0.0 302.4
14:45 10.2 75.0 1018.4 3.4 NNE 6.8 N 0.0 302.4
14:50 10.2 74.0 1018.4 3.0 NNE 5.8 NNW 0.0 181.8
14:55 10.2 74.0 1018.4 3.0 NNE 5.8 NNW 0.0 181.8
15:00 10.1 74.4 1018.4 1.9 NNE 4.1 NNW 0.0 191.7
15:05 10.1 74.4 1018.4 1.9 NNE 4.1 NNW 0.0 191.7
15:10 10.4 73.5 1018.6 1.5 ENE 3.2 SSW 0.0 238.9
15:15 10.4 73.5 1018.6 1.5 ENE 3.2 SSW 0.0 238.9
15:20 10.8 73.0 1018.5 1.7 NE 4.0 NW 0.0 218.5
15:25 10.8 73.0 1018.5 1.7 NE 4.0 NW 0.0 218.5
15:30 11.2 70.9 1018.5 1.5 ENE 4.8 SSE 0.0 218.5
15:35 11.2 70.9 1018.5 1.5 ENE 4.8 SSE 0.0 218.5
15:40 12.0 66.2 1018.5 4.4 NE 7.4 W 0.0 196.9
15:45 12.0 66.2 1018.5 4.4 NE 7.4 W 0.0 196.9
15:50 12.0 68.3 1018.6 3.9 NNE 8.2 NNW 0.0 171.0
15:55 12.0 68.3 1018.6 3.9 NNE 8.2 NNW 0.0 171.0
16:00 11.5 69.9 1018.6 4.0 NNE 6.2 NNW 0.0 129.5
16:05 11.5 69.9 1018.6 4.0 NNE 6.2 NNW 0.0 129.5
16:10 11.0 71.1 1018.7 3.7 NNE 5.4 NW 0.0 117.7
16:15 11.0 71.1 1018.7 3.7 NNE 5.4 NW 0.0 117.7
16:20 10.6 73.0 1018.7 3.1 NNE 4.7 NNW 0.0 71.8
16:25 10.6 73.0 1018.7 3.1 NNE 4.7 NNW 0.0 71.8
16:30 10.3 73.7 1018.8 3.1 NNE 4.7 NNE 0.0 35.5
16:35 10.3 73.7 1018.8 3.1 NNE 4.7 NNE 0.0 35.5
16:40 10.0 74.6 1018.9 2.5 NNE 4.5 N 0.0 27.5
16:45 10.0 74.6 1018.9 2.5 NNE 4.5 N 0.0 27.5
16:50 9.7 76.0 1019.0 2.2 NNE 4.1 WSW 0.0 22.6
16:55 9.7 76.0 1019.0 2.2 NNE 4.1 WSW 0.0 22.6
17:00 9.4 78.2 1019.1 1.4 ENE 2.9 SW 0.0 9.5
17:05 9.4 78.2 1019.1 1.4 ENE 2.9 SW 0.0 9.5
17:10 9.0 79.7 1019.2 1.8 NNE 4.1 SSE 0.0 2.4
17:15 9.0 79.7 1019.2 1.8 NNE 4.1 SSE 0.0 2.4
17:20 8.5 81.5 1019.4 2.0 NNE 4.4 SSE 0.0 0.3
17:25 8.5 81.5 1019.4 2.0 NNE 4.4 SSE 0.0 0.3
17:30 8.1 82.3 1019.5 2.5 NE 4.6 E 0.0 0.0
17:35 8.1 82.3 1019.5 2.5 NE 4.6 E 0.0 0.0
17:40 7.6 84.6 1019.6 3.2 NNE 5.7 E 0.0 0.0
17:45 7.6 84.6 1019.6 3.2 NNE 5.7 E 0.0 0.0
17:50 7.3 85.8 1019.6 2.4 NNE 6.2 SE 0.0 0.0
17:55 7.3 85.8 1019.6 2.4 NNE 6.2 SE 0.0 0.0
18:00 7.0 86.6 1019.7 2.6 NNE 6.0 SSE 0.0 0.1
18:05 7.0 86.6 1019.7 2.6 NNE 6.0 SSE 0.0 0.1
18:10 6.6 87.3 1019.7 2.8 NNE 4.7 ESE 0.0 0.1
18:15 6.6 87.3 1019.7 2.8 NNE 4.7 ESE 0.0 0.1
18:20 6.3 88.4 1019.6 3.8 NNE 6.5 E 0.0 0.0
18:25 6.3 88.4 1019.6 3.8 NNE 6.5 E 0.0 0.0
18:30 6.0 89.6 1019.6 2.9 NE 7.3 SE 0.0 0.0
18:35 6.0 89.6 1019.6 2.9 NE 7.3 SE 0.0 0.0
18:40 5.9 90.0 1019.6 3.0 NNE 5.3 E 0.0 0.0
18:45 5.9 90.0 1019.6 3.0 NNE 5.3 E 0.0 0.0
18:50 5.7 90.3 1019.7 2.3 NE 3.7 ENE 0.0 0.0
18:55 5.7 90.3 1019.7 2.3 NE 3.7 ENE 0.0 0.0
19:00 5.4 90.8 1019.8 2.6 N 4.4 ESE 0.0 0.0
19:05 5.4 90.8 1019.8 2.6 N 4.4 ESE 0.0 0.0
19:10 5.2 91.1 1020.0 3.3 NNE 4.9 E 0.0 0.0
19:15 5.2 91.1 1020.0 3.3 NNE 4.9 E 0.0 0.0
19:20 5.1 91.9 1020.1 2.5 NNE 4.2 SE 0.0 0.0
19:25 5.1 91.9 1020.1 2.5 NNE 4.2 SE 0.0 0.0
19:30 5.0 92.4 1020.0 3.7 N 6.3 E 0.0 0.3
19:35 5.0 92.4 1020.0 3.7 N 6.3 E 0.0 0.3
19:40 5.0 93.2 1020.1 3.1 NNE 6.5 ESE 0.0 0.5
19:45 5.0 93.2 1020.1 3.1 NNE 6.5 ESE 0.0 0.5
19:50 5.1 93.8 1020.2 2.3 NNE 3.9 SE 0.0 0.5
19:55 5.1 93.8 1020.2 2.3 NNE 3.9 SE 0.0 0.5
20:00 5.4 94.1 1020.2 2.2 NNE 3.9 SE 0.0 0.2
20:05 5.4 94.1 1020.2 2.2 NNE 3.9 SE 0.0 0.2
20:10 5.6 94.2 1020.3 2.4 NNE 4.1 ESE 0.0 0.5
20:15 5.6 94.2 1020.3 2.4 NNE 4.1 ESE 0.0 0.5
20:20 5.8 94.4 1020.4 1.6 NNE 2.9 SE 0.0 0.6
20:25 5.8 94.4 1020.4 1.6 NNE 2.9 SE 0.0 0.6
20:30 5.9 94.0 1020.4 1.4 NNE 2.7 E 0.0 0.3
20:35 5.9 94.0 1020.4 1.4 NNE 2.7 E 0.0 0.3
20:40 6.1 94.0 1020.4 2.2 NNE 4.1 E 0.0 0.5
20:45 6.1 94.0 1020.4 2.2 NNE 4.1 E 0.0 0.5
20:50 6.2 94.0 1020.3 1.5 E 3.5 ESE 0.0 0.5
20:55 6.2 94.0 1020.3 1.5 E 3.5 ESE 0.0 0.5
21:00 6.3 94.1 1020.2 1.6 ENE 3.2 SSE 0.0 0.6
21:05 6.3 94.1 1020.2 1.6 ENE 3.2 SSE 0.0 0.6
21:10 6.5 94.0 1020.2 2.1 NNE 3.0 S 0.0 0.4
21:15 6.5 94.0 1020.2 2.1 NNE 3.0 S 0.0 0.4
Màxima 12.1 99.9 1020.7 5.7 NNE 10.7 NNW 0.1 472.7
Mínima -0.1 66.2 1017.5
Total 0.2